createdAt,value
2023-01-13T00:01:32.726Z,85.72
2023-01-13T00:04:01.560Z,85.73
2023-01-13T00:06:29.764Z,85.34
2023-01-13T00:08:58.083Z,85.82
2023-01-13T00:12:21.760Z,85.87
2023-01-13T00:14:49.901Z,85.56
2023-01-13T00:17:17.877Z,86.02
2023-01-13T00:19:46.687Z,86.13
2023-01-13T00:22:14.967Z,86.01
2023-01-13T00:24:43.291Z,86.02
2023-01-13T00:27:11.361Z,86.34
2023-01-13T00:29:40.138Z,86.72
2023-01-13T00:32:08.382Z,86.50
2023-01-13T00:34:39.258Z,86.68
2023-01-13T00:37:08.299Z,86.41
2023-01-13T00:39:36.300Z,86.69
2023-01-13T00:42:23.486Z,86.49
2023-01-13T00:44:54.618Z,85.89
2023-01-13T00:47:23.520Z,86.15
2023-01-13T00:49:51.785Z,86.32
2023-01-13T00:52:23.939Z,86.53
2023-01-13T00:54:51.913Z,86.59
2023-01-13T00:57:19.979Z,86.74
2023-01-13T00:59:49.629Z,86.80
2023-01-13T01:02:21.595Z,86.53
2023-01-13T01:04:49.762Z,86.65
2023-01-13T01:07:17.934Z,86.89
2023-01-13T01:09:46.334Z,87.08
2023-01-13T01:12:14.426Z,86.93
2023-01-13T01:14:43.234Z,87.10
2023-01-13T01:17:11.282Z,86.88
2023-01-13T01:19:39.483Z,87.48
2023-01-13T01:22:08.316Z,87.50
2023-01-13T01:24:39.191Z,87.40
2023-01-13T01:27:08.392Z,87.61
2023-01-13T01:29:39.687Z,87.44
2023-01-13T01:32:08.811Z,87.53
2023-01-13T01:34:37.144Z,87.73
2023-01-13T01:37:08.809Z,87.50
2023-01-13T01:39:41.341Z,87.61
2023-01-13T01:42:36.234Z,87.43
2023-01-13T01:45:24.508Z,87.93
2023-01-13T01:48:01.521Z,87.75
2023-01-13T01:51:21.533Z,87.88
2023-01-13T01:53:51.260Z,87.63
2023-01-13T01:56:25.446Z,88.21
2023-01-13T01:58:54.473Z,87.59
2023-01-13T02:01:22.941Z,87.94
2023-01-13T02:04:10.519Z,88.11
2023-01-13T02:06:39.806Z,88.11
2023-01-13T02:09:08.648Z,88.07
2023-01-13T02:11:59.758Z,88.02
2023-01-13T02:14:30.180Z,87.89
2023-01-13T02:17:33.022Z,88.44
2023-01-13T02:20:34.635Z,88.30
2023-01-13T02:24:30.306Z,88.23
2023-01-13T02:27:04.732Z,88.63
2023-01-13T02:30:20.940Z,88.45
2023-01-13T02:33:00.458Z,88.59
2023-01-13T02:35:48.709Z,88.39
2023-01-13T02:38:24.878Z,88.47
2023-01-13T02:41:21.514Z,88.69
2023-01-13T02:44:07.436Z,88.57
2023-01-13T02:47:13.128Z,88.50
2023-01-13T02:49:50.666Z,88.43
2023-01-13T02:52:28.209Z,88.58
2023-01-13T02:55:05.501Z,88.86
2023-01-13T02:57:37.041Z,88.67
2023-01-13T03:00:33.806Z,89.03
2023-01-13T03:03:03.380Z,88.84
2023-01-13T03:05:34.178Z,89.04
2023-01-13T03:08:39.966Z,89.30
2023-01-13T03:11:14.628Z,89.21
2023-01-13T03:13:45.468Z,88.78
2023-01-13T03:16:33.317Z,89.17
2023-01-13T03:19:27.172Z,89.39
2023-01-13T03:22:17.727Z,89.48
2023-01-13T03:25:22.759Z,89.37
2023-01-13T03:27:57.438Z,89.44
2023-01-13T03:30:42.867Z,89.61
2023-01-13T03:33:27.425Z,89.68
2023-01-13T03:36:00.480Z,89.91
2023-01-13T03:38:30.492Z,89.98
2023-01-13T03:41:05.097Z,90.00
2023-01-13T03:44:01.545Z,89.99
2023-01-13T03:46:37.808Z,90.13
2023-01-13T03:49:08.416Z,89.92
2023-01-13T03:51:40.628Z,89.89
2023-01-13T03:54:13.707Z,90.20
2023-01-13T04:01:05.523Z,89.86
2023-01-13T04:03:37.225Z,89.93
2023-01-13T04:06:25.405Z,89.92
2023-01-13T04:09:02.683Z,90.05
2023-01-13T04:11:40.313Z,90.05
2023-01-13T04:14:11.631Z,90.28
2023-01-13T04:16:41.375Z,90.29
2023-01-13T04:19:09.254Z,90.31
2023-01-13T04:21:37.331Z,90.20
2023-01-13T04:24:05.659Z,90.32
2023-01-13T04:26:33.715Z,90.03
2023-01-13T04:29:01.707Z,90.39
2023-01-13T04:31:29.650Z,90.43
2023-01-13T04:34:51.592Z,90.36
2023-01-13T04:37:19.641Z,90.32
2023-01-13T04:44:35.540Z,90.18
2023-01-13T04:47:04.163Z,90.40
2023-01-13T04:49:32.059Z,90.53
2023-01-13T04:52:00.051Z,90.50
2023-01-13T04:54:28.038Z,90.40
2023-01-13T04:56:55.954Z,90.52
2023-01-13T04:59:23.906Z,90.21
2023-01-13T05:01:52.076Z,90.46
2023-01-13T05:04:20.611Z,90.45
2023-01-13T05:06:48.679Z,90.47
2023-01-13T05:09:16.846Z,90.41
2023-01-13T05:12:05.343Z,90.55
2023-01-13T05:14:52.132Z,90.62
2023-01-13T05:17:24.291Z,90.54
2023-01-13T05:19:52.333Z,90.43
2023-01-13T05:22:39.016Z,90.63
2023-01-13T05:25:21.728Z,90.70
2023-01-13T05:27:51.300Z,90.54
2023-01-13T05:30:21.652Z,90.40
2023-01-13T05:32:49.996Z,90.34
2023-01-13T05:35:18.461Z,90.52
2023-01-13T05:37:47.014Z,90.62
2023-01-13T05:40:37.119Z,90.63
2023-01-13T05:43:33.449Z,90.57
2023-01-13T05:46:08.172Z,90.55
2023-01-13T05:48:39.188Z,90.35
2023-01-13T05:51:09.654Z,90.40
2023-01-13T05:58:26.659Z,90.40
2023-01-13T06:01:06.185Z,90.38
2023-01-13T06:03:34.654Z,90.40
2023-01-13T06:06:04.241Z,90.37
2023-01-13T06:08:34.438Z,90.45
2023-01-13T06:11:02.466Z,90.40
2023-01-13T06:13:31.180Z,90.50
2023-01-13T06:15:59.996Z,90.39
2023-01-13T06:18:28.101Z,90.40
2023-01-13T06:20:56.577Z,90.23
2023-01-13T06:23:24.941Z,90.15
2023-01-13T06:26:04.510Z,90.30
2023-01-13T06:28:33.391Z,90.17
2023-01-13T06:31:06.471Z,90.11
2023-01-13T06:33:41.481Z,90.21
2023-01-13T06:36:15.659Z,90.21
2023-01-13T06:38:47.761Z,90.35
2023-01-13T06:41:16.673Z,90.25
2023-01-13T06:43:44.765Z,90.23
2023-01-13T06:46:12.721Z,90.08
2023-01-13T06:48:40.714Z,90.01
2023-01-13T06:51:08.815Z,90.29
2023-01-13T06:53:36.870Z,90.27
2023-01-13T06:56:04.955Z,90.11
2023-01-13T06:58:32.933Z,90.05
2023-01-13T07:01:01.604Z,90.10
2023-01-13T07:03:29.704Z,89.95
2023-01-13T07:05:57.718Z,90.06
2023-01-13T07:08:25.806Z,89.94
2023-01-13T07:10:54.480Z,89.97
2023-01-13T07:13:41.652Z,90.19
2023-01-13T07:16:10.224Z,89.90
2023-01-13T07:18:39.169Z,89.85
2023-01-13T07:21:09.908Z,89.86
2023-01-13T07:23:41.852Z,89.75
2023-01-13T07:26:10.780Z,89.73
2023-01-13T07:28:41.669Z,89.65
2023-01-13T07:31:18.902Z,89.51
2023-01-13T07:33:48.192Z,89.53
2023-01-13T07:36:16.159Z,89.41
2023-01-13T07:38:44.801Z,89.41
2023-01-13T07:41:32.889Z,89.39
2023-01-13T07:44:05.057Z,89.40
2023-01-13T07:46:33.879Z,89.39
2023-01-13T07:49:01.858Z,89.20
2023-01-13T07:51:29.780Z,89.05
2023-01-13T07:53:58.353Z,89.06
2023-01-13T07:56:26.285Z,89.05
2023-01-13T07:58:54.350Z,88.96
2023-01-13T08:01:22.723Z,88.76
2023-01-13T08:03:50.827Z,88.84
2023-01-13T08:06:19.230Z,88.55
2023-01-13T08:08:47.152Z,88.45
2023-01-13T08:11:15.152Z,88.28
2023-01-13T08:13:43.405Z,87.59
2023-01-13T08:16:14.322Z,87.45
2023-01-13T08:18:43.351Z,87.57
2023-01-13T08:21:15.709Z,87.71
2023-01-13T08:23:45.302Z,87.01
2023-01-13T08:26:17.502Z,87.17
2023-01-13T08:28:46.084Z,86.90
2023-01-13T08:31:20.305Z,86.52
2023-01-13T08:33:48.493Z,86.66
2023-01-13T08:36:18.506Z,86.52
2023-01-13T08:38:46.559Z,86.78
2023-01-13T08:41:40.335Z,86.67
2023-01-13T08:44:09.413Z,86.78
2023-01-13T08:46:37.666Z,86.48
2023-01-13T08:49:05.922Z,86.62
2023-01-13T08:51:34.576Z,86.02
2023-01-13T08:54:03.409Z,85.90
2023-01-13T08:56:35.049Z,85.72
2023-01-13T08:59:03.494Z,85.88
2023-01-13T09:01:32.310Z,85.75
2023-01-13T09:04:00.437Z,85.15
2023-01-13T09:06:28.410Z,85.47
2023-01-13T09:08:56.386Z,85.75
2023-01-13T09:11:51.438Z,85.16
2023-01-13T09:14:23.373Z,85.00
2023-01-13T09:16:51.592Z,85.19
2023-01-13T09:19:19.687Z,85.30
2023-01-13T09:21:47.800Z,85.36
2023-01-13T09:24:16.140Z,84.62
2023-01-13T09:26:44.173Z,84.80
2023-01-13T09:29:13.189Z,84.38
2023-01-13T09:36:03.828Z,82.68
2023-01-13T09:38:31.882Z,80.69
2023-01-13T09:40:59.954Z,80.54
2023-01-13T09:43:56.083Z,80.70
2023-01-13T09:46:47.525Z,80.01
2023-01-13T09:49:36.038Z,80.32
2023-01-13T09:52:15.162Z,80.56
2023-01-13T09:54:48.245Z,79.44
2023-01-13T09:57:19.078Z,79.07
2023-01-13T09:59:47.943Z,78.41
2023-01-13T10:02:44.248Z,78.28
2023-01-13T10:05:45.109Z,77.74
2023-01-13T10:08:32.785Z,77.19
2023-01-13T10:11:24.102Z,77.38
2023-01-13T10:13:58.596Z,77.38
2023-01-13T10:16:32.134Z,77.08
2023-01-13T10:19:25.888Z,75.85
2023-01-13T10:22:15.752Z,75.97
2023-01-13T10:24:57.209Z,74.19
2023-01-13T10:27:39.027Z,74.25
2023-01-13T10:30:40.291Z,73.93
2023-01-13T10:33:13.076Z,73.86
2023-01-13T10:35:51.069Z,72.89
2023-01-13T10:38:24.993Z,72.54
2023-01-13T10:41:00.788Z,72.90
2023-01-13T10:43:30.064Z,72.74
2023-01-13T10:46:05.308Z,73.85
2023-01-13T10:48:41.029Z,73.55
2023-01-13T10:51:20.070Z,72.79
2023-01-13T10:54:02.974Z,73.46
2023-01-13T10:56:33.855Z,73.44
2023-01-13T10:59:24.475Z,72.35
2023-01-13T11:01:58.383Z,72.40
2023-01-13T11:04:30.664Z,72.11
2023-01-13T11:07:00.403Z,72.27
2023-01-13T11:09:30.533Z,72.26
2023-01-13T11:12:00.335Z,72.31
2023-01-13T11:14:46.836Z,72.60
2023-01-13T11:17:46.645Z,71.77
2023-01-13T11:23:30.322Z,70.93
2023-01-13T11:26:27.076Z,70.93
2023-01-13T11:29:33.967Z,70.33
2023-01-13T11:32:18.191Z,70.73
2023-01-13T11:34:55.155Z,70.85
2023-01-13T11:37:37.683Z,70.36
2023-01-13T11:40:32.272Z,69.64
2023-01-13T11:43:15.286Z,69.41
2023-01-13T11:45:53.585Z,69.14
2023-01-13T11:48:28.883Z,69.22
2023-01-13T11:51:12.049Z,69.63
2023-01-13T11:54:08.279Z,69.82
2023-01-13T11:56:56.166Z,69.01
2023-01-13T11:59:50.393Z,69.87
2023-01-13T12:03:00.937Z,70.08
2023-01-13T12:05:44.902Z,70.50
2023-01-13T12:08:18.348Z,69.73
2023-01-13T12:10:55.067Z,69.95
2023-01-13T12:13:35.256Z,69.38
2023-01-13T12:16:10.161Z,69.17
2023-01-13T12:18:47.407Z,69.11
2023-01-13T12:21:23.665Z,68.92
2023-01-13T12:24:37.604Z,69.29
2023-01-13T12:27:13.962Z,69.01
2023-01-13T12:29:44.558Z,68.99
2023-01-13T12:32:22.023Z,69.09
2023-01-13T12:35:14.576Z,69.14
2023-01-13T12:37:48.726Z,69.39
2023-01-13T12:40:41.304Z,69.99
2023-01-13T12:43:40.941Z,70.62
2023-01-13T12:46:21.664Z,70.47
2023-01-13T12:48:57.153Z,70.18
2023-01-13T12:51:29.770Z,69.49
2023-01-13T12:53:58.204Z,69.18
2023-01-13T12:56:42.591Z,69.43
2023-01-13T12:59:19.966Z,68.94
2023-01-13T13:01:50.669Z,69.55
2023-01-13T13:04:21.666Z,69.51
2023-01-13T13:07:19.207Z,69.62
2023-01-13T13:10:02.844Z,69.10
2023-01-13T13:12:49.548Z,69.28
2023-01-13T13:15:34.223Z,69.58
2023-01-13T13:18:06.703Z,69.80
2023-01-13T13:21:05.168Z,70.61
2023-01-13T13:23:33.113Z,70.55
2023-01-13T13:29:25.005Z,70.57
2023-01-13T13:31:58.972Z,70.63
2023-01-13T13:35:07.908Z,70.40
2023-01-13T13:38:30.492Z,70.78
2023-01-13T13:41:16.986Z,70.91
2023-01-13T13:44:04.735Z,70.82
2023-01-13T13:46:47.166Z,71.21
2023-01-13T13:49:20.240Z,71.89
2023-01-13T13:52:01.678Z,71.52
2023-01-13T13:55:08.920Z,71.39
2023-01-13T13:57:39.950Z,71.00
2023-01-13T14:00:20.823Z,70.92
2023-01-13T14:02:53.079Z,70.94
2023-01-13T14:05:24.230Z,70.81
2023-01-13T14:08:03.306Z,71.08
2023-01-13T14:10:35.555Z,70.89
2023-01-13T14:22:36.495Z,71.53
2023-01-13T14:25:33.389Z,70.97
2023-01-13T14:28:13.679Z,71.34
2023-01-13T14:30:42.503Z,70.83
2023-01-13T14:33:20.981Z,70.48
2023-01-13T14:36:14.839Z,70.69
2023-01-13T14:39:07.272Z,70.92
2023-01-13T14:41:38.743Z,70.82
2023-01-13T14:44:30.924Z,71.61
2023-01-13T14:51:40.601Z,72.36
2023-01-13T14:54:49.496Z,72.33
2023-01-13T14:57:32.635Z,71.94
2023-01-13T15:00:15.980Z,72.18
2023-01-13T15:02:47.080Z,72.22
2023-01-13T15:06:06.598Z,71.75
2023-01-13T15:08:37.182Z,72.22
2023-01-13T15:11:07.953Z,72.22
2023-01-13T15:14:01.789Z,72.72
2023-01-13T15:16:33.813Z,72.89
2023-01-13T15:19:05.635Z,72.78
2023-01-13T15:21:34.497Z,72.72
2023-01-13T15:24:02.891Z,72.92
2023-01-13T15:26:33.699Z,72.93
2023-01-13T15:29:05.326Z,73.12
2023-01-13T15:31:33.309Z,72.97
2023-01-13T15:34:01.272Z,72.90
2023-01-13T15:36:32.561Z,72.95
2023-01-13T15:39:01.784Z,73.03
2023-01-13T15:41:48.678Z,73.28
2023-01-13T15:44:35.991Z,73.26
2023-01-13T15:47:10.387Z,73.57
2023-01-13T15:49:44.162Z,73.41
2023-01-13T15:52:24.541Z,73.75
2023-01-13T15:54:54.405Z,73.52
2023-01-13T15:57:31.870Z,73.40
2023-01-13T16:00:13.366Z,73.38
2023-01-13T16:02:44.579Z,73.54
2023-01-13T16:05:13.218Z,73.38
2023-01-13T16:07:41.493Z,73.52
2023-01-13T16:10:23.133Z,73.61
2023-01-13T16:12:52.603Z,73.88
2023-01-13T16:15:22.820Z,73.78
2023-01-13T16:18:10.242Z,74.09
2023-01-13T16:20:38.555Z,73.59
2023-01-13T16:23:07.097Z,73.54
2023-01-13T16:25:35.430Z,73.52
2023-01-13T16:28:03.506Z,73.47
2023-01-13T16:30:56.515Z,73.94
2023-01-13T16:33:24.959Z,73.53
2023-01-13T16:36:11.747Z,73.77
2023-01-13T16:38:42.200Z,73.78
2023-01-13T16:41:10.976Z,73.68
2023-01-13T16:43:40.585Z,73.50
2023-01-13T16:46:40.127Z,74.13
2023-01-13T16:49:15.633Z,74.40
2023-01-13T16:52:25.917Z,74.45
2023-01-13T16:55:22.776Z,74.26
2023-01-13T16:57:51.436Z,73.97
2023-01-13T17:00:20.038Z,74.43
2023-01-13T17:02:48.579Z,74.14
2023-01-13T17:05:16.732Z,74.35
2023-01-13T17:07:54.739Z,74.92
2023-01-13T17:10:24.892Z,74.71
2023-01-13T17:12:53.090Z,74.94
2023-01-13T17:15:23.298Z,74.73
2023-01-13T17:17:52.432Z,74.64
2023-01-13T17:20:20.637Z,74.84
2023-01-13T17:30:28.014Z,75.08
2023-01-13T17:32:56.092Z,75.24
2023-01-13T17:35:25.401Z,75.46
2023-01-13T17:37:54.355Z,75.42
2023-01-13T17:40:23.050Z,75.29
2023-01-13T17:42:51.275Z,75.13
2023-01-13T17:45:19.402Z,75.03
2023-01-13T17:47:47.741Z,75.27
2023-01-13T17:50:21.962Z,75.59
2023-01-13T17:52:50.044Z,76.06
2023-01-13T17:55:18.089Z,75.72
2023-01-13T17:57:46.120Z,75.46
2023-01-13T18:00:15.031Z,75.54
2023-01-13T18:02:43.379Z,75.77
2023-01-13T18:05:12.787Z,75.89
2023-01-13T18:07:40.933Z,75.71
2023-01-13T18:10:10.872Z,75.89
2023-01-13T18:12:39.234Z,75.64
2023-01-13T18:15:07.927Z,75.81
2023-01-13T18:17:36.283Z,76.31
2023-01-13T18:24:58.869Z,75.99
2023-01-13T18:27:33.798Z,76.48
2023-01-13T18:30:52.595Z,76.39
2023-01-13T18:33:21.608Z,76.39
2023-01-13T18:35:49.968Z,76.45
2023-01-13T18:38:23.008Z,76.43
2023-01-13T18:40:52.218Z,76.31
2023-01-13T18:43:20.553Z,76.95
2023-01-13T18:45:50.791Z,76.68
2023-01-13T18:48:19.362Z,77.01
2023-01-13T18:50:47.589Z,77.07
2023-01-13T18:53:42.787Z,77.06
2023-01-13T18:56:12.268Z,77.17
2023-01-13T18:58:51.093Z,77.28
2023-01-13T19:01:22.727Z,77.34
2023-01-13T19:03:59.606Z,77.54
2023-01-13T19:06:32.725Z,77.59
2023-01-13T19:09:08.637Z,77.82
2023-01-13T19:11:36.759Z,77.97
2023-01-13T19:14:04.785Z,78.06
2023-01-13T19:16:33.189Z,78.86
2023-01-13T19:19:02.405Z,80.14
2023-01-13T19:21:30.729Z,80.72
2023-01-13T19:23:59.143Z,80.92
2023-01-13T19:26:27.295Z,81.62
2023-01-13T19:28:57.281Z,82.62
2023-01-13T19:31:25.776Z,84.59
2023-01-13T19:33:56.674Z,84.91
2023-01-13T19:36:24.620Z,84.95
2023-01-13T19:38:53.169Z,86.43
2023-01-13T19:41:40.093Z,85.78
2023-01-13T19:44:29.977Z,86.59
2023-01-13T19:46:58.436Z,86.83
2023-01-13T19:49:26.473Z,86.96
2023-01-13T19:51:54.430Z,87.50
2023-01-13T19:54:22.464Z,87.11
2023-01-13T19:56:50.882Z,87.67
2023-01-13T19:59:22.341Z,88.47
2023-01-13T20:01:50.506Z,87.93
2023-01-13T20:04:26.653Z,89.15
2023-01-13T20:06:55.934Z,88.87
2023-01-13T20:09:25.742Z,88.97
2023-01-13T20:11:54.011Z,88.95
2023-01-13T20:14:22.614Z,89.84
2023-01-13T20:16:50.844Z,90.34
2023-01-13T20:19:18.898Z,90.43
2023-01-13T20:21:46.895Z,91.40
2023-01-13T20:24:19.832Z,91.74
2023-01-13T20:26:47.900Z,91.19
2023-01-13T20:29:16.011Z,91.77
2023-01-13T20:31:44.426Z,92.58
2023-01-13T20:34:14.721Z,93.32
2023-01-13T20:36:44.322Z,93.02
2023-01-13T20:39:18.122Z,92.96
2023-01-13T20:42:05.049Z,92.75
2023-01-13T20:44:34.766Z,93.62
2023-01-13T20:47:03.168Z,93.01
2023-01-13T20:49:31.599Z,93.06
2023-01-13T20:51:59.677Z,93.33
2023-01-13T20:54:28.472Z,93.45
2023-01-13T20:56:56.445Z,93.86
2023-01-13T20:59:24.593Z,93.47
2023-01-13T21:01:53.119Z,93.55
2023-01-13T21:04:21.530Z,93.52
2023-01-13T21:06:49.915Z,93.14
2023-01-13T21:09:18.419Z,93.49
2023-01-13T21:12:18.053Z,93.87
2023-01-13T21:15:10.958Z,93.90
2023-01-13T21:18:05.298Z,94.11
2023-01-13T21:20:36.072Z,94.65
2023-01-13T21:23:04.849Z,95.42
2023-01-13T21:25:39.927Z,95.45
2023-01-13T21:28:11.462Z,96.02
2023-01-13T21:30:44.282Z,95.51
2023-01-13T21:33:13.696Z,95.16
2023-01-13T21:35:41.760Z,95.07
2023-01-13T21:38:11.755Z,95.82
2023-01-13T21:40:39.896Z,95.09
2023-01-13T21:43:31.141Z,94.55
2023-01-13T21:46:18.310Z,94.76
2023-01-13T21:48:46.215Z,95.03
2023-01-13T21:51:14.139Z,95.94
2023-01-13T21:53:42.088Z,96.63
2023-01-13T21:56:10.045Z,96.59
2023-01-13T21:58:39.013Z,96.60
2023-01-13T22:01:07.229Z,96.48
2023-01-13T22:03:58.061Z,96.60
2023-01-13T22:06:27.151Z,97.34
2023-01-13T22:08:56.685Z,97.30
2023-01-13T22:11:24.656Z,97.42
2023-01-13T22:14:13.784Z,97.41
2023-01-13T22:16:50.181Z,97.63
2023-01-13T22:19:21.340Z,98.03
2023-01-13T22:21:49.677Z,97.78
2023-01-13T22:24:17.698Z,97.38
2023-01-13T22:26:46.065Z,97.82
2023-01-13T22:29:14.026Z,97.94
2023-01-13T22:31:42.076Z,97.40
2023-01-13T22:34:13.130Z,97.63
2023-01-13T22:36:41.021Z,97.08
2023-01-13T22:39:09.334Z,97.32
2023-01-13T22:41:37.351Z,97.29
2023-01-13T22:44:05.484Z,97.18
2023-01-13T22:46:33.438Z,96.75
2023-01-13T22:49:01.723Z,96.72
2023-01-13T22:51:30.771Z,96.90
2023-01-13T22:53:59.207Z,96.84
2023-01-13T22:56:27.672Z,96.90
2023-01-13T22:59:00.339Z,96.89
2023-01-13T23:01:30.884Z,96.86
2023-01-13T23:04:01.565Z,97.17
2023-01-13T23:06:32.238Z,96.64
2023-01-13T23:09:01.215Z,96.59
2023-01-13T23:11:30.767Z,96.41
2023-01-13T23:14:01.849Z,96.65
2023-01-13T23:16:35.846Z,96.79
2023-01-13T23:19:12.312Z,97.20
2023-01-13T23:22:33.791Z,96.81
2023-01-13T23:25:11.081Z,96.48
2023-01-13T23:27:39.551Z,96.68
2023-01-13T23:30:10.659Z,96.79
2023-01-13T23:38:47.436Z,97.08
2023-01-13T23:41:41.305Z,96.96
2023-01-13T23:47:41.384Z,96.78
2023-01-13T23:50:10.476Z,96.83
2023-01-13T23:52:38.519Z,96.84
2023-01-13T23:55:06.907Z,96.77
2023-01-13T23:57:35.634Z,96.73
